Kessler, West Virginia
Current Conditions -  °F | °C
As of 1:35 AM on Wednesday 26 Nov 2014 (Local Time) from KLWB Reporting Station
Overcast Overcast  
Wind Chill: 35°   Ceiling: 10000
Heat Index: 38°   Visibility: 10mi
Dew Point: 28°   Wind: 5mph
Humidity: 67%   Direction: 20°NNE
Pressure: 30.05"   Gusts: NA
Location:  37.948°N, 80.6919°W
Report Text: KLWB 260635Z AUTO 02004KT 10SM OVC100 04/M02 A3005 RMK AO2 T00351021
Loading
Personal Weather Stations






























Interactive Weather Map New forecast layout! Learn more

10-Day Weather Forecast

Advertisements
Track Severe Weather on mobile